Time;durP1;ratioP1;P1;durP2;ratioP2;P2;SDS_P1;SDS_P2;PMS_P1;PMS_P2;Temp;Humidity;BMP_temperature;BMP_pressure;BME280_temperature;BME280_humidity;BME280_pressure;Samples;Min_cycle;Max_cycle;Signal;HPM_P1;HPM_P2
2020/12/29 00:00:28;;;;;;;3.60;2.10;;;;;;;12.12;100.00;100124.53;5114436;28;20085;-77
2020/12/29 00:03:14;;;;;;;4.60;2.28;;;;;;;12.17;100.00;100114.72;5099793;28;20023;-77
2020/12/29 00:06:02;;;;;;;4.07;1.77;;;;;;;11.92;100.00;100107.72;5114374;28;20027;-77
2020/12/29 00:08:48;;;;;;;3.40;2.65;;;;;;;12.03;100.00;100116.97;5114520;28;20024;-76
2020/12/29 00:11:34;;;;;;;15.20;10.95;;;;;;;12.04;100.00;100118.69;5114313;28;20080;-77
2020/12/29 00:14:20;;;;;;;11.75;6.50;;;;;;;12.51;100.00;100122.34;5098925;28;20019;-76
2020/12/29 00:17:06;;;;;;;6.07;2.30;;;;;;;12.23;100.00;100124.19;5114337;28;20089;-76
2020/12/29 00:19:52;;;;;;;5.03;2.20;;;;;;;12.32;100.00;100132.63;5114823;28;20082;-76
2020/12/29 00:22:38;;;;;;;2.97;2.15;;;;;;;12.16;100.00;100136.66;5115274;28;20116;-78
2020/12/29 00:25:23;;;;;;;3.63;2.03;;;;;;;12.41;100.00;100134.03;5114629;28;20070;-76
2020/12/29 00:28:09;;;;;;;5.25;2.28;;;;;;;12.67;100.00;100150.66;5100330;28;20027;-77
2020/12/29 00:30:55;;;;;;;5.88;2.50;;;;;;;12.47;100.00;100154.88;5099770;28;20052;-76
2020/12/29 00:33:41;;;;;;;2.88;2.13;;;;;;;12.34;100.00;100162.28;5117134;28;20066;-76
2020/12/29 00:36:26;;;;;;;4.35;2.22;;;;;;;12.49;100.00;100164.41;5114950;28;20027;-75
2020/12/29 00:39:12;;;;;;;4.32;2.30;;;;;;;12.59;100.00;100170.22;5099638;28;20039;-76
2020/12/29 00:41:58;;;;;;;3.10;2.20;;;;;;;12.75;100.00;100174.91;5113841;28;20043;-76
2020/12/29 00:44:44;;;;;;;4.05;2.15;;;;;;;12.49;100.00;100164.41;5099863;28;20051;-76
2020/12/29 00:47:29;;;;;;;3.90;2.28;;;;;;;12.38;100.00;100158.66;5118330;28;20028;-77
2020/12/29 00:50:15;;;;;;;4.65;2.35;;;;;;;12.76;100.00;100147.72;5118276;28;20023;-76
2020/12/29 00:53:02;;;;;;;5.97;3.03;;;;;;;12.64;100.00;100148.13;5118122;28;20019;-76
2020/12/29 00:55:48;;;;;;;20.02;11.02;;;;;;;12.33;100.00;100149.22;5103888;28;20040;-76
2020/12/29 00:58:35;;;;;;;7.85;3.75;;;;;;;12.14;100.00;100142.88;5102835;28;20032;-76
2020/12/29 01:01:20;;;;;;;7.53;3.40;;;;;;;12.07;100.00;100128.22;5118510;28;20035;-76
2020/12/29 01:04:06;;;;;;;4.90;2.72;;;;;;;12.32;100.00;100115.97;5119254;28;20026;-77
2020/12/29 01:06:52;;;;;;;3.95;2.50;;;;;;;11.71;100.00;100105.78;5118640;28;20032;-76
2020/12/29 01:09:38;;;;;;;3.67;2.42;;;;;;;11.87;100.00;100096.50;5117678;28;20038;-77
2020/12/29 01:12:24;;;;;;;3.65;2.10;;;;;;;11.85;100.00;100093.94;5117235;28;20015;-77
2020/12/29 01:15:09;;;;;;;4.78;2.10;;;;;;;11.81;100.00;100086.22;5117477;28;20456;-76
2020/12/29 01:17:55;;;;;;;3.58;2.08;;;;;;;11.82;100.00;100077.44;5116662;28;20088;-76
2020/12/29 01:20:41;;;;;;;4.30;2.22;;;;;;;11.73;100.00;100091.69;5117165;28;20031;-76
2020/12/29 01:23:26;;;;;;;4.07;2.08;;;;;;;11.99;100.00;100082.97;5102141;28;20526;-76
2020/12/29 01:26:26;;;;;;;5.80;2.10;;;;;;;12.11;100.00;100075.56;5117281;28;20053;-77
2020/12/29 01:29:12;;;;;;;4.25;2.13;;;;;;;11.93;100.00;100070.91;5116924;28;20117;-76
2020/12/29 01:31:59;;;;;;;4.32;2.10;;;;;;;11.99;100.00;100065.47;5117556;28;20015;-77
2020/12/29 01:34:44;;;;;;;3.25;2.08;;;;;;;12.01;100.00;100058.41;5116333;28;20119;-76
2020/12/29 01:37:31;;;;;;;3.60;2.08;;;;;;;12.19;100.00;100047.28;5116273;28;20028;-76
2020/12/29 01:40:16;;;;;;;5.28;2.33;;;;;;;12.07;100.00;100059.97;5116872;28;20031;-77
2020/12/29 01:43:03;;;;;;;4.05;2.22;;;;;;;12.12;100.00;100056.28;5101535;28;20357;-76
2020/12/29 01:45:48;;;;;;;2.70;2.00;;;;;;;12.23;100.00;100058.53;5117171;28;20028;-75
2020/12/29 01:48:34;;;;;;;2.80;1.90;;;;;;;12.37;100.00;100062.38;5117305;28;20032;-77
2020/12/29 01:51:20;;;;;;;6.22;2.10;;;;;;;12.42;100.00;100059.59;5117588;28;20027;-76
2020/12/29 01:54:06;;;;;;;4.22;2.35;;;;;;;12.42;100.00;100068.31;5116485;28;20020;-77
2020/12/29 01:56:52;;;;;;;2.80;1.95;;;;;;;12.23;100.00;100069.03;5116329;27;20035;-76
2020/12/29 01:59:38;;;;;;;5.63;2.10;;;;;;;12.51;100.00;100068.03;5116261;28;20058;-76
2020/12/29 02:02:24;;;;;;;4.97;2.50;;;;;;;12.65;100.00;100073.63;5116306;28;20039;-77
2020/12/29 02:05:09;;;;;;;7.45;2.47;;;;;;;12.14;100.00;100074.59;5116939;28;20368;-76
2020/12/29 02:07:56;;;;;;;4.78;2.70;;;;;;;12.03;100.00;100084.59;5116128;28;20023;-77
2020/12/29 02:10:43;;;;;;;6.05;2.70;;;;;;;12.06;100.00;100087.13;5116501;28;20056;-77
2020/12/29 02:13:29;;;;;;;6.00;2.80;;;;;;;12.25;100.00;100089.06;5116120;28;20020;-76
2020/12/29 02:16:15;;;;;;;5.70;2.58;;;;;;;12.31;100.00;100075.75;5102165;28;20028;-77
2020/12/29 02:19:00;;;;;;;4.20;2.83;;;;;;;12.13;100.00;100063.22;5100359;28;20126;-76
2020/12/29 02:21:51;;;;;;;8.35;3.03;;;;;;;12.09;100.00;100066.88;5116111;28;20115;-77
2020/12/29 02:24:37;;;;;;;6.18;2.72;;;;;;;12.03;100.00;100072.34;5115985;28;20094;-77
2020/12/29 02:27:25;;;;;;;6.72;2.60;;;;;;;12.00;100.00;100072.44;5115988;28;20035;-76
2020/12/29 02:30:11;;;;;;;4.03;2.22;;;;;;;11.81;100.00;100083.59;5116005;28;20126;-77
2020/12/29 02:32:57;;;;;;;3.58;1.98;;;;;;;12.09;100.00;100077.38;5116100;28;20016;-76
2020/12/29 02:35:42;;;;;;;4.75;2.05;;;;;;;12.38;100.00;100079.84;5116177;28;20032;-76
2020/12/29 02:38:28;;;;;;;2.38;2.00;;;;;;;11.97;100.00;100087.44;5116966;27;20463;-76
2020/12/29 02:41:18;;;;;;;4.85;2.50;;;;;;;12.10;100.00;100084.34;5115365;28;20027;-76
2020/12/29 02:44:04;;;;;;;5.70;2.55;;;;;;;12.04;100.00;100095.06;5115672;28;20070;-76
2020/12/29 02:46:50;;;;;;;3.47;2.10;;;;;;;11.96;100.00;100096.19;5115792;28;20035;-76
2020/12/29 02:49:36;;;;;;;3.15;2.30;;;;;;;12.13;100.00;100107.03;5115352;28;20467;-74
2020/12/29 02:52:21;;;;;;;4.10;2.10;;;;;;;12.26;100.00;100093.41;5115440;28;20084;-75
2020/12/29 02:55:07;;;;;;;4.57;2.20;;;;;;;12.09;100.00;100103.63;5115170;28;20448;-76
2020/12/29 02:57:53;;;;;;;7.00;2.70;;;;;;;12.32;100.00;100103.72;5116056;28;20027;-75
2020/12/29 03:00:39;;;;;;;4.75;2.42;;;;;;;12.24;100.00;100092.63;5115736;28;20027;-77
2020/12/29 03:03:25;;;;;;;5.93;2.53;;;;;;;12.33;100.00;100091.41;5115498;28;20039;-75
2020/12/29 03:06:10;;;;;;;5.85;2.50;;;;;;;12.00;100.00;100082.94;5115065;28;20123;-77
2020/12/29 03:08:56;;;;;;;7.57;2.60;;;;;;;11.86;100.00;100072.00;5114548;28;20028;-76
2020/12/29 03:11:44;;;;;;;6.97;3.20;;;;;;;12.08;100.00;100074.78;5114955;28;20039;-76
2020/12/29 03:14:30;;;;;;;6.70;3.10;;;;;;;11.98;100.00;100063.75;5115375;28;20024;-76
2020/12/29 03:17:15;;;;;;;6.22;2.70;;;;;;;12.15;100.00;100061.44;5114994;28;20032;-77
2020/12/29 03:20:03;;;;;;;6.38;2.60;;;;;;;11.99;100.00;100052.34;5115048;28;20425;-76
2020/12/29 03:22:49;;;;;;;5.15;2.80;;;;;;;11.85;100.00;100057.19;5115084;28;20016;-76
2020/12/29 03:25:35;;;;;;;5.75;2.75;;;;;;;12.15;100.00;100058.81;5115324;28;20023;-76
2020/12/29 03:28:20;;;;;;;4.85;2.70;;;;;;;12.11;100.00;100070.31;5114793;28;20470;-76
2020/12/29 03:31:06;;;;;;;4.82;2.70;;;;;;;11.82;100.00;100062.53;5115174;28;20024;-76
2020/12/29 03:33:52;;;;;;;4.22;2.20;;;;;;;11.89;100.00;100071.94;5114793;28;20026;-76
2020/12/29 03:36:38;;;;;;;5.40;2.58;;;;;;;12.11;100.00;100074.69;5114868;28;20119;-76
2020/12/29 03:39:24;;;;;;;4.63;2.60;;;;;;;12.21;100.00;100070.84;5114805;28;20024;-77
2020/12/29 03:42:09;;;;;;;3.72;2.20;;;;;;;12.40;100.00;100079.81;5114201;28;20052;-76
2020/12/29 03:44:56;;;;;;;4.90;2.65;;;;;;;12.11;100.00;100083.44;5114627;28;20459;-77
2020/12/29 03:47:41;;;;;;;6.03;2.80;;;;;;;11.95;100.00;100082.25;5114976;28;20364;-76
2020/12/29 03:50:27;;;;;;;3.70;2.60;;;;;;;12.19;100.00;100093.69;5114600;28;20023;-76
2020/12/29 03:53:13;;;;;;;4.68;2.40;;;;;;;12.11;100.00;100088.69;5100198;28;20119;-75
2020/12/29 03:55:59;;;;;;;6.07;2.50;;;;;;;12.05;100.00;100075.75;5114690;28;20115;-75
2020/12/29 03:58:44;;;;;;;6.10;2.38;;;;;;;11.96;100.00;100075.19;5099758;28;20031;-75
2020/12/29 04:01:30;;;;;;;6.32;2.67;;;;;;;11.93;100.00;100062.19;5114462;28;20035;-75
2020/12/29 04:04:16;;;;;;;7.20;2.90;;;;;;;12.00;100.00;100075.06;5114781;28;20019;-75
2020/12/29 04:07:02;;;;;;;6.25;2.58;;;;;;;11.98;100.00;100076.03;5113711;28;20032;-76
2020/12/29 04:09:48;;;;;;;8.02;2.38;;;;;;;11.91;100.00;100075.38;5114853;28;20035;-75
2020/12/29 04:12:34;;;;;;;4.55;2.17;;;;;;;12.01;100.00;100076.78;5114145;28;20055;-74
2020/12/29 04:15:20;;;;;;;5.22;2.00;;;;;;;12.02;100.00;100077.63;5114435;28;20464;-75
2020/12/29 04:18:06;;;;;;;4.97;2.10;;;;;;;11.88;100.00;100085.09;5114618;28;20038;-75
2020/12/29 04:20:51;;;;;;;3.88;1.90;;;;;;;11.90;100.00;100094.63;5118060;28;20027;-74
2020/12/29 04:23:37;;;;;;;6.25;2.08;;;;;;;12.00;100.00;100088.19;5117940;28;20073;-75
2020/12/29 04:26:23;;;;;;;5.05;3.42;;;;;;;12.05;100.00;100088.03;5118378;28;20020;-75
2020/12/29 04:29:08;;;;;;;2.30;1.83;;;;;;;12.03;100.00;100095.09;5118893;28;20077;-75
2020/12/29 04:31:54;;;;;;;4.50;2.17;;;;;;;11.98;100.00;100092.63;5117953;28;20031;-75
2020/12/29 04:34:40;;;;;;;4.32;2.10;;;;;;;12.15;100.00;100085.06;5103386;28;20023;-75
2020/12/29 04:37:26;;;;;;;4.93;2.25;;;;;;;12.20;100.00;100085.75;5118032;28;20468;-75
2020/12/29 04:40:12;;;;;;;2.95;1.90;;;;;;;12.19;100.00;100088.44;5118958;28;20114;-75
2020/12/29 04:42:57;;;;;;;6.38;2.40;;;;;;;12.37;100.00;100090.41;5102657;28;20109;-74
2020/12/29 04:45:43;;;;;;;4.88;2.20;;;;;;;12.24;100.00;100089.13;5117344;28;20023;-75
2020/12/29 04:48:30;;;;;;;4.18;2.30;;;;;;;12.23;100.00;100084.78;5101631;28;20498;-75
2020/12/29 04:51:16;;;;;;;4.80;2.03;;;;;;;12.34;100.00;100091.38;5116767;28;20088;-75
2020/12/29 04:54:06;;;;;;;5.75;2.30;;;;;;;12.15;100.00;100086.81;5101986;28;20077;-75
2020/12/29 04:56:55;;;;;;;5.28;2.30;;;;;;;12.29;100.00;100106.44;5102793;28;20028;-76
2020/12/29 04:59:41;;;;;;;5.57;2.30;;;;;;;12.15;100.00;100105.19;5117070;28;20420;-75
2020/12/29 05:02:26;;;;;;;4.38;2.22;;;;;;;12.23;100.00;100111.91;5116916;28;20470;-75
2020/12/29 05:05:12;;;;;;;5.40;2.47;;;;;;;12.36;100.00;100112.34;5118168;28;20028;-74
2020/12/29 05:07:58;;;;;;;4.22;2.22;;;;;;;12.12;100.00;100102.66;5101866;28;20036;-75
2020/12/29 05:10:47;;;;;;;6.20;3.03;;;;;;;12.23;100.00;100105.78;5102597;28;20020;-76
2020/12/29 05:13:32;;;;;;;6.68;2.80;;;;;;;12.26;100.00;100098.66;5102950;28;20340;-76
2020/12/29 05:16:18;;;;;;;4.75;3.10;;;;;;;12.26;100.00;100110.94;5116927;28;20034;-74
2020/12/29 05:19:09;;;;;;;7.22;2.42;;;;;;;12.32;100.00;100116.84;5116406;28;20028;-74
2020/12/29 05:21:57;;;;;;;4.28;2.30;;;;;;;12.38;100.00;100140.28;5103553;28;20039;-75
2020/12/29 05:24:46;;;;;;;4.60;2.30;;;;;;;12.29;100.00;100158.09;5116651;28;20032;-75
2020/12/29 05:27:38;;;;;;;6.75;2.50;;;;;;;12.28;100.00;100162.50;5117806;28;20015;-75
2020/12/29 05:30:25;;;;;;;5.97;3.40;;;;;;;12.54;100.00;100164.28;5116923;28;20081;-75
2020/12/29 05:33:13;;;;;;;7.07;2.85;;;;;;;12.45;100.00;100172.44;5116891;28;20034;-76
2020/12/29 05:36:01;;;;;;;6.35;2.90;;;;;;;12.18;100.00;100178.63;5117308;28;20360;-75
2020/12/29 05:38:46;;;;;;;4.15;2.80;;;;;;;12.18;100.00;100178.63;5116493;28;20363;-75
2020/12/29 05:41:37;;;;;;;5.57;2.80;;;;;;;12.44;100.00;100186.50;5100876;28;20047;-75
2020/12/29 05:44:28;;;;;;;4.82;2.38;;;;;;;12.32;100.00;100192.16;5116163;28;20111;-75
2020/12/29 05:47:20;;;;;;;4.57;2.70;;;;;;;12.38;100.00;100186.72;5116342;28;20035;-75
2020/12/29 05:50:06;;;;;;;7.63;3.50;;;;;;;12.46;100.00;100196.03;5116087;28;20035;-75
2020/12/29 05:53:00;;;;;;;7.85;4.03;;;;;;;12.45;100.00;100196.09;5101430;28;20134;-74
2020/12/29 05:55:46;;;;;;;8.15;4.20;;;;;;;12.50;100.00;100202.91;5116213;28;20390;-75
2020/12/29 05:58:32;;;;;;;7.47;4.43;;;;;;;12.69;100.00;100200.53;5115924;28;20029;-76
2020/12/29 06:01:18;;;;;;;6.75;4.00;;;;;;;12.62;100.00;100199.88;5116200;28;20325;-74
2020/12/29 06:04:04;;;;;;;6.80;3.40;;;;;;;12.44;100.00;100221.53;5101795;28;20471;-74
2020/12/29 06:06:50;;;;;;;6.35;3.60;;;;;;;12.33;100.00;100223.63;5115640;28;20024;-74
2020/12/29 06:09:37;;;;;;;5.38;3.33;;;;;;;12.49;100.00;100232.72;5115898;28;20051;-76
2020/12/29 06:12:47;;;;;;;13.15;3.90;;;;;;;12.13;100.00;100227.81;5115345;28;20111;-76
2020/12/29 06:15:35;;;;;;;10.68;4.68;;;;;;;12.58;100.00;100226.31;5115260;28;20028;-75
2020/12/29 06:18:32;;;;;;;7.47;3.75;;;;;;;12.38;100.00;100239.25;5100468;28;20116;-75
2020/12/29 06:21:20;;;;;;;7.90;4.10;;;;;;;12.46;100.00;100250.38;5115552;28;20027;-75
2020/12/29 06:24:05;;;;;;;6.85;3.85;;;;;;;12.68;100.00;100268.00;5115262;28;20027;-75
2020/12/29 06:26:53;;;;;;;10.60;3.85;;;;;;;12.75;100.00;100273.91;5115551;28;20027;-75
2020/12/29 06:29:40;;;;;;;7.88;4.20;;;;;;;12.72;100.00;100279.28;5114593;28;20034;-74
2020/12/29 06:32:28;;;;;;;9.98;4.60;;;;;;;12.73;100.00;100284.47;5100946;28;20035;-74
2020/12/29 06:35:15;;;;;;;8.38;4.90;;;;;;;12.77;100.00;100275.59;5115851;28;20038;-74
2020/12/29 06:38:01;;;;;;;10.93;5.65;;;;;;;12.45;100.00;100274.91;5114997;28;20359;-75
2020/12/29 06:40:48;;;;;;;13.65;8.57;;;;;;;12.10;100.00;100267.28;5101532;28;20019;-76
2020/12/29 06:43:34;;;;;;;19.30;9.50;;;;;;;12.25;100.00;100267.66;5114521;28;20482;-75
2020/12/29 06:46:20;;;;;;;13.25;8.55;;;;;;;12.44;100.00;100278.44;5114822;28;20035;-76
2020/12/29 06:49:20;;;;;;;13.50;8.55;;;;;;;12.68;100.00;100285.53;5101564;28;20035;-76
2020/12/29 06:52:16;;;;;;;14.43;7.93;;;;;;;12.70;100.00;100315.28;5114952;28;20032;-75
2020/12/29 06:55:02;;;;;;;15.30;7.82;;;;;;;12.52;100.00;100307.97;5115111;28;20028;-75
2020/12/29 06:57:51;;;;;;;13.27;7.72;;;;;;;12.76;100.00;100305.41;5099879;28;20111;-75
2020/12/29 07:00:37;;;;;;;20.95;9.82;;;;;;;12.86;100.00;100296.31;5114572;28;20027;-75
2020/12/29 07:03:32;;;;;;;17.20;8.07;;;;;;;12.93;100.00;100287.31;5100367;28;20035;-76
2020/12/29 07:06:27;;;;;;;18.50;8.85;;;;;;;12.85;100.00;100305.09;5101284;28;20030;-76
2020/12/29 07:09:19;;;;;;;18.42;9.00;;;;;;;12.94;100.00;100307.41;5100694;28;20066;-77
2020/12/29 07:12:07;;;;;;;16.48;7.50;;;;;;;13.25;100.00;100317.78;5114861;28;20368;-76
2020/12/29 07:14:53;;;;;;;13.05;7.97;;;;;;;13.58;100.00;100313.97;5114327;28;20028;-76
2020/12/29 07:17:38;;;;;;;16.48;8.23;;;;;;;13.71;100.00;100307.38;5114178;28;20031;-76
2020/12/29 07:20:27;;;;;;;21.05;9.57;;;;;;;13.76;100.00;100311.56;5114553;28;20340;-76
2020/12/29 07:23:16;;;;;;;26.77;10.43;;;;;;;14.12;100.00;100314.56;5100119;28;20070;-77
2020/12/29 07:26:02;;;;;;;31.83;14.25;;;;;;;14.24;100.00;100312.34;5114784;28;20517;-76
2020/12/29 07:28:56;;;;;;;20.50;11.13;;;;;;;14.27;100.00;100325.41;5113903;28;20032;-77
2020/12/29 07:31:43;;;;;;;23.00;11.45;;;;;;;14.08;100.00;100313.84;5098660;28;20023;-77
2020/12/29 07:34:34;;;;;;;17.23;9.63;;;;;;;14.33;100.00;100309.38;5114439;28;20023;-76
2020/12/29 07:37:21;;;;;;;18.52;10.45;;;;;;;14.50;100.00;100313.97;5114236;28;20077;-80
2020/12/29 07:40:08;;;;;;;17.55;9.00;;;;;;;14.60;100.00;100304.78;5115371;28;20456;-76
2020/12/29 07:42:53;;;;;;;15.57;8.02;;;;;;;14.52;100.00;100310.34;5113450;28;20047;-77
2020/12/29 07:45:39;;;;;;;15.25;6.13;;;;;;;14.82;100.00;100316.16;5114305;28;20024;-76
2020/12/29 07:48:25;;;;;;;13.02;5.28;;;;;;;14.36;100.00;100319.78;5100477;28;20371;-75
2020/12/29 07:51:11;;;;;;;13.95;5.57;;;;;;;14.66;100.00;100323.84;5113267;28;20032;-74
2020/12/29 07:54:04;;;;;;;11.32;5.55;;;;;;;15.15;100.00;100316.53;5113286;28;20027;-76
2020/12/29 07:56:50;;;;;;;15.82;6.25;;;;;;;15.48;100.00;100315.13;5100533;28;20027;-75
2020/12/29 07:59:36;;;;;;;10.10;5.75;;;;;;;15.55;100.00;100325.34;5113570;28;20035;-76
2020/12/29 08:02:21;;;;;;;9.52;4.68;;;;;;;15.44;100.00;100332.91;5099324;28;20459;-75
2020/12/29 08:05:07;;;;;;;9.85;4.70;;;;;;;15.55;100.00;100330.63;5115016;28;20036;-76
2020/12/29 08:07:56;;;;;;;8.35;4.00;;;;;;;15.74;100.00;100333.31;5098819;28;20040;-76
2020/12/29 08:10:44;;;;;;;8.65;3.70;;;;;;;15.95;100.00;100335.84;5100146;28;20456;-76
2020/12/29 08:13:30;;;;;;;9.57;3.95;;;;;;;16.49;100.00;100348.34;5098600;28;20062;-76
2020/12/29 08:16:20;;;;;;;8.30;3.40;;;;;;;16.22;100.00;100341.66;5112730;28;20054;-76
2020/12/29 08:19:09;;;;;;;6.93;2.47;;;;;;;16.59;100.00;100341.69;5099581;28;20410;-75
2020/12/29 08:21:56;;;;;;;9.20;3.28;;;;;;;16.22;100.00;100339.88;5099850;28;20088;-76
2020/12/29 08:24:42;;;;;;;7.10;3.17;;;;;;;16.39;100.00;100349.69;5113669;28;20108;-73
2020/12/29 08:27:30;;;;;;;4.93;3.45;;;;;;;16.21;100.00;100350.53;5114046;28;20368;-74
2020/12/29 08:30:17;;;;;;;9.02;3.45;;;;;;;16.70;100.00;100355.25;5115287;28;20130;-72
2020/12/29 08:33:05;;;;;;;6.68;3.80;;;;;;;17.03;100.00;100358.88;5113851;28;20062;-73
2020/12/29 08:35:55;;;;;;;9.00;4.72;;;;;;;16.43;100.00;100368.00;5112868;28;20031;-74
2020/12/29 08:38:41;;;;;;;9.93;4.07;;;;;;;17.09;100.00;100374.47;5112896;28;20023;-74
2020/12/29 08:41:34;;;;;;;8.63;4.05;;;;;;;16.84;100.00;100376.63;5113185;28;20055;-73
2020/12/29 08:44:20;;;;;;;7.80;4.07;;;;;;;16.78;100.00;100379.53;5113948;28;20084;-74
2020/12/29 08:47:10;;;;;;;7.22;3.95;;;;;;;17.48;100.00;100365.41;5097445;28;20054;-74
2020/12/29 08:49:56;;;;;;;12.18;6.22;;;;;;;17.57;100.00;100364.94;5113402;28;20359;-73
2020/12/29 08:52:42;;;;;;;5.60;3.63;;;;;;;17.49;99.69;100368.94;5114631;28;20031;-74
2020/12/29 08:55:30;;;;;;;11.85;6.38;;;;;;;17.52;100.00;100355.53;5099297;28;20038;-73
2020/12/29 08:58:23;;;;;;;7.53;3.78;;;;;;;17.29;100.00;100351.38;5113191;28;20031;-74
2020/12/29 09:01:09;;;;;;;9.73;4.82;;;;;;;17.09;100.00;100343.59;5098616;28;20071;-74
2020/12/29 09:03:55;;;;;;;6.78;3.88;;;;;;;17.25;100.00;100352.47;5114267;28;20034;-73
2020/12/29 09:06:41;;;;;;;8.77;5.13;;;;;;;17.48;100.00;100352.19;5115359;28;20028;-73
2020/12/29 09:09:28;;;;;;;11.82;5.75;;;;;;;17.99;98.06;100356.53;5116385;28;20080;-74
2020/12/29 09:12:16;;;;;;;12.40;6.28;;;;;;;18.10;96.75;100354.19;5117674;28;20036;-72
2020/12/29 09:15:07;;;;;;;10.32;5.43;;;;;;;17.90;95.42;100362.34;5116542;28;20467;-72
2020/12/29 09:17:58;;;;;;;13.07;5.32;;;;;;;18.18;94.25;100362.56;5116172;28;20028;-73
2020/12/29 09:20:44;;;;;;;9.40;5.07;;;;;;;18.06;95.00;100355.28;5100937;28;20441;-72
2020/12/29 09:23:29;;;;;;;10.70;4.80;;;;;;;18.11;94.93;100354.09;5115562;28;20065;-72
2020/12/29 09:26:15;;;;;;;15.60;5.38;;;;;;;17.70;95.84;100358.09;5117763;28;20547;-73
2020/12/29 09:29:18;;;;;;;8.48;3.40;;;;;;;17.44;95.23;100360.38;5118027;28;20093;-73
2020/12/29 09:32:04;;;;;;;9.13;4.40;;;;;;;17.50;94.63;100358.28;5116827;28;20027;-73
2020/12/29 09:34:52;;;;;;;7.45;4.07;;;;;;;18.06;92.72;100353.50;5117022;28;20020;-72
2020/12/29 09:37:43;;;;;;;11.68;4.38;;;;;;;18.32;91.63;100346.75;5116167;28;20030;-73
2020/12/29 09:40:29;;;;;;;12.35;4.75;;;;;;;18.44;92.00;100352.28;5102190;28;20233;-73
2020/12/29 09:43:15;;;;;;;8.23;4.05;;;;;;;18.45;88.89;100363.78;5115815;28;20043;-73
2020/12/29 09:46:01;;;;;;;10.30;4.57;;;;;;;18.55;88.42;100360.53;5116637;28;20031;-74
2020/12/29 09:48:47;;;;;;;6.97;2.85;;;;;;;18.16;87.92;100364.44;5116033;28;20032;-74
2020/12/29 09:51:32;;;;;;;8.48;3.22;;;;;;;18.28;87.80;100361.13;5117548;28;20023;-74
2020/12/29 09:54:18;;;;;;;6.55;3.53;;;;;;;18.63;86.89;100368.91;5101996;28;20042;-73
2020/12/29 09:57:04;;;;;;;6.00;3.45;;;;;;;18.57;88.39;100371.88;5116057;28;20114;-73
2020/12/29 09:59:50;;;;;;;7.22;3.10;;;;;;;18.51;87.45;100350.16;5116298;28;20027;-74
2020/12/29 10:02:36;;;;;;;9.27;2.58;;;;;;;18.46;87.49;100368.13;5114970;28;20034;-75
2020/12/29 10:05:21;;;;;;;7.00;2.63;;;;;;;18.69;85.73;100367.72;5116664;28;20034;-73
2020/12/29 10:08:07;;;;;;;8.65;3.60;;;;;;;18.20;85.03;100379.25;5116794;28;20024;-73
2020/12/29 10:10:53;;;;;;;7.25;3.08;;;;;;;18.52;86.49;100384.56;5116571;28;20432;-74
2020/12/29 10:13:38;;;;;;;12.18;6.80;;;;;;;17.89;87.31;100382.69;5115189;28;20034;-73
2020/12/29 10:16:24;;;;;;;19.95;13.05;;;;;;;18.48;85.73;100385.66;5115297;28;20023;-74
2020/12/29 10:19:11;;;;;;;17.42;8.32;;;;;;;18.13;85.50;100394.63;5114794;28;20027;-73
2020/12/29 10:21:57;;;;;;;7.88;3.42;;;;;;;18.57;84.32;100386.97;5116721;28;20409;-74
2020/12/29 10:24:42;;;;;;;8.82;2.78;;;;;;;18.49;85.17;100384.72;5101323;28;20030;-74
2020/12/29 10:27:28;;;;;;;11.50;1.70;;;;;;;17.93;83.86;100383.38;5117180;27;20030;-74
2020/12/29 10:30:14;;;;;;;4.53;2.20;;;;;;;18.05;85.33;100391.53;5116732;27;20019;-74
2020/12/29 10:33:00;;;;;;;6.20;2.05;;;;;;;17.79;85.88;100385.88;5115316;28;20024;-74
2020/12/29 10:35:46;;;;;;;8.70;2.20;;;;;;;18.17;86.51;100385.56;5116491;28;20092;-73
2020/12/29 10:38:31;;;;;;;12.27;3.10;;;;;;;18.11;85.32;100395.66;5100689;28;20019;-74
2020/12/29 10:41:17;;;;;;;34.58;25.33;;;;;;;18.64;84.54;100390.97;5113987;28;20459;-73
2020/12/29 10:44:04;;;;;;;8.48;3.50;;;;;;;18.93;82.75;100391.06;5114159;28;20015;-75
2020/12/29 10:46:50;;;;;;;8.73;2.20;;;;;;;18.29;85.21;100384.91;5099402;28;20032;-74
2020/12/29 10:49:36;;;;;;;4.95;1.95;;;;;;;18.68;83.83;100388.06;5100123;28;20050;-74
2020/12/29 10:52:21;;;;;;;4.13;1.60;;;;;;;18.53;85.60;100394.22;5115868;28;20467;-73
2020/12/29 10:55:07;;;;;;;4.07;2.35;;;;;;;18.60;84.82;100397.41;5113921;28;20050;-75
2020/12/29 10:57:53;;;;;;;3.80;2.10;;;;;;;18.56;85.81;100395.84;5116116;28;20030;-74
2020/12/29 11:00:39;;;;;;;5.43;2.30;;;;;;;18.66;84.67;100397.91;5100192;28;20102;-75
2020/12/29 11:03:25;;;;;;;4.20;2.60;;;;;;;19.20;82.63;100407.22;5115152;28;20340;-75
2020/12/29 11:06:19;;;;;;;6.03;2.80;;;;;;;19.15;81.63;100417.25;5100195;28;20064;-75
2020/12/29 11:09:05;;;;;;;4.30;2.63;;;;;;;19.30;81.67;100423.50;5114298;28;20023;-74
2020/12/29 11:11:51;;;;;;;5.80;2.30;;;;;;;19.16;82.11;100449.03;5114785;28;20093;-74
2020/12/29 11:14:36;;;;;;;6.75;2.10;;;;;;;19.13;83.42;100461.66;5115656;28;20041;-74
2020/12/29 11:17:22;;;;;;;7.00;2.65;;;;;;;18.07;100.00;100474.50;5115407;28;20028;-75
2020/12/29 11:20:08;;;;;;;7.18;4.55;;;;;;;17.73;100.00;100487.75;5100543;28;20034;-74
2020/12/29 11:22:54;;;;;;;9.10;5.13;;;;;;;17.50;100.00;100488.06;5100935;28;20181;-74
2020/12/29 11:25:39;;;;;;;14.20;5.90;;;;;;;17.24;100.00;100499.00;5099091;28;20032;-75
2020/12/29 11:28:25;;;;;;;9.20;5.88;;;;;;;16.53;100.00;100509.47;5115480;28;20076;-73
2020/12/29 11:31:15;;;;;;;9.95;6.35;;;;;;;15.56;100.00;100504.00;5114489;28;20084;-74
2020/12/29 11:34:01;;;;;;;13.88;9.13;;;;;;;15.95;100.00;100502.31;5113722;28;20016;-74
2020/12/29 11:36:49;;;;;;;11.35;7.50;;;;;;;15.54;100.00;100510.25;5100613;28;20016;-74
2020/12/29 11:39:35;;;;;;;11.65;7.55;;;;;;;15.44;100.00;100530.91;5114514;28;20096;-75
2020/12/29 11:42:20;;;;;;;11.45;7.30;;;;;;;15.32;100.00;100538.41;5114579;28;20072;-74
2020/12/29 11:45:06;;;;;;;11.40;7.30;;;;;;;15.73;100.00;100525.28;5115793;28;20063;-75
2020/12/29 11:47:52;;;;;;;9.40;6.82;;;;;;;15.63;100.00;100534.50;5115385;28;20035;-75
2020/12/29 11:50:38;;;;;;;9.32;6.22;;;;;;;15.63;100.00;100531.00;5115749;28;20038;-75
2020/12/29 11:53:24;;;;;;;8.10;5.68;;;;;;;15.79;100.00;100553.25;5099252;28;20363;-74
2020/12/29 11:56:10;;;;;;;12.40;6.32;;;;;;;16.58;100.00;100552.44;5114177;28;20063;-76
2020/12/29 11:58:56;;;;;;;11.38;6.57;;;;;;;16.09;100.00;100551.94;5114696;28;20023;-74
2020/12/29 12:01:42;;;;;;;10.63;5.78;;;;;;;15.98;100.00;100546.25;5114710;28;20028;-75
2020/12/29 12:04:28;;;;;;;8.75;5.60;;;;;;;16.44;100.00;100552.16;5114868;28;20042;-74
2020/12/29 12:07:14;;;;;;;36.58;8.38;;;;;;;16.61;100.00;100559.38;5100536;28;20024;-75
2020/12/29 12:10:02;;;;;;;15.20;5.32;;;;;;;16.13;100.00;100550.88;5115916;28;20118;-75
2020/12/29 12:12:48;;;;;;;11.20;6.10;;;;;;;16.42;100.00;100545.22;5114696;28;20042;-74
2020/12/29 12:15:33;;;;;;;10.82;5.53;;;;;;;15.73;100.00;100543.78;5114895;28;20024;-75
2020/12/29 12:18:19;;;;;;;8.35;4.70;;;;;;;15.82;100.00;100543.38;5115145;28;20027;-75
2020/12/29 12:21:05;;;;;;;7.63;5.47;;;;;;;15.76;100.00;100550.72;5114080;28;20482;-74
2020/12/29 12:23:51;;;;;;;12.63;5.50;;;;;;;15.97;100.00;100560.38;5115432;28;20439;-75
2020/12/29 12:26:36;;;;;;;5.93;4.18;;;;;;;15.86;100.00;100557.31;5115578;28;20024;-74
2020/12/29 12:29:22;;;;;;;11.30;4.22;;;;;;;16.07;100.00;100559.94;5114508;28;20027;-75
2020/12/29 12:32:08;;;;;;;9.32;4.90;;;;;;;16.18;100.00;100568.28;5115807;28;20023;-75
2020/12/29 12:34:53;;;;;;;10.68;4.55;;;;;;;16.33;100.00;100566.75;5114406;28;20023;-74
2020/12/29 12:37:39;;;;;;;6.93;4.55;;;;;;;15.80;100.00;100576.09;5115417;28;20498;-75
2020/12/29 12:40:25;;;;;;;7.43;4.85;;;;;;;15.84;100.00;100577.69;5114963;28;20015;-76
2020/12/29 12:43:11;;;;;;;10.10;4.72;;;;;;;15.63;100.00;100573.28;5118945;28;20062;-76
2020/12/29 12:45:56;;;;;;;7.70;4.53;;;;;;;15.86;100.00;100579.31;5116955;28;20398;-76